createdAt,value
2018-03-24T00:01:20.253Z,99.90
2018-03-24T00:03:46.981Z,99.90
2018-03-24T00:06:13.724Z,99.90
2018-03-24T00:08:41.317Z,99.90
2018-03-24T00:11:08.090Z,99.90
2018-03-24T00:13:34.788Z,99.90
2018-03-24T00:16:01.530Z,99.90
2018-03-24T00:18:28.849Z,99.90
2018-03-24T00:20:55.642Z,99.90
2018-03-24T00:23:22.376Z,99.90
2018-03-24T00:25:49.135Z,99.90
2018-03-24T00:28:17.251Z,99.90
2018-03-24T00:30:43.957Z,99.90
2018-03-24T00:33:11.418Z,99.90
2018-03-24T00:35:38.164Z,99.90
2018-03-24T00:38:05.587Z,99.90
2018-03-24T00:40:32.346Z,99.90
2018-03-24T00:43:00.396Z,99.90
2018-03-24T00:45:28.051Z,99.90
2018-03-24T00:47:55.830Z,99.90
2018-03-24T00:50:23.147Z,99.90
2018-03-24T00:52:49.900Z,99.90
2018-03-24T00:55:16.673Z,99.90
2018-03-24T00:57:46.072Z,99.90
2018-03-24T01:00:16.345Z,99.90
2018-03-24T01:02:43.194Z,99.90
2018-03-24T01:05:09.912Z,99.90
2018-03-24T01:07:36.689Z,99.90
2018-03-24T01:10:03.579Z,99.90
2018-03-24T01:12:31.316Z,99.90
2018-03-24T01:14:58.848Z,99.90
2018-03-24T01:17:25.598Z,99.90
2018-03-24T01:19:52.377Z,99.90
2018-03-24T01:22:19.154Z,99.90
2018-03-24T01:24:45.959Z,99.90
2018-03-24T01:27:12.896Z,99.90
2018-03-24T01:29:39.628Z,99.90
2018-03-24T01:32:06.340Z,99.90
2018-03-24T01:34:33.097Z,99.90
2018-03-24T01:37:00.536Z,99.90
2018-03-24T01:39:27.286Z,99.90
2018-03-24T01:41:54.096Z,99.90
2018-03-24T01:44:20.839Z,99.90
2018-03-24T01:46:47.597Z,99.90
2018-03-24T01:49:15.058Z,99.90
2018-03-24T01:51:41.804Z,99.90
2018-03-24T01:54:08.560Z,99.90
2018-03-24T01:56:35.258Z,99.90
2018-03-24T01:59:01.973Z,99.90
2018-03-24T02:01:28.744Z,99.90
2018-03-24T02:03:55.452Z,99.90
2018-03-24T02:06:22.823Z,99.90
2018-03-24T02:08:49.615Z,99.90
2018-03-24T02:11:16.374Z,99.90
2018-03-24T02:13:43.910Z,99.90
2018-03-24T02:16:11.542Z,99.90
2018-03-24T02:18:39.035Z,99.90
2018-03-24T02:21:06.548Z,99.90
2018-03-24T02:23:33.902Z,99.90
2018-03-24T02:26:00.628Z,99.90
2018-03-24T02:28:27.331Z,99.90
2018-03-24T02:30:54.102Z,99.90
2018-03-24T02:33:20.942Z,99.90
2018-03-24T02:35:48.425Z,99.90
2018-03-24T02:38:15.874Z,99.90
2018-03-24T02:40:42.586Z,99.90
2018-03-24T02:43:10.667Z,99.90
2018-03-24T02:45:39.595Z,99.90
2018-03-24T02:48:06.369Z,99.90
2018-03-24T02:50:33.105Z,99.90
2018-03-24T02:52:59.867Z,99.90
2018-03-24T02:55:26.528Z,99.90
2018-03-24T02:57:53.247Z,99.90
2018-03-24T03:00:20.010Z,99.90
2018-03-24T03:02:46.620Z,99.90
2018-03-24T03:05:13.365Z,99.90
2018-03-24T03:07:40.104Z,99.90
2018-03-24T03:10:06.917Z,99.90
2018-03-24T03:12:33.661Z,99.90
2018-03-24T03:15:01.149Z,99.90
2018-03-24T03:17:27.895Z,99.90
2018-03-24T03:19:54.698Z,99.90
2018-03-24T03:22:21.479Z,99.90
2018-03-24T03:24:48.265Z,99.90
2018-03-24T03:27:16.960Z,99.90
2018-03-24T03:29:43.648Z,99.90
2018-03-24T03:32:11.329Z,99.90
2018-03-24T03:34:38.757Z,99.90
2018-03-24T03:37:05.480Z,99.90
2018-03-24T03:39:32.308Z,99.90
2018-03-24T03:41:59.015Z,99.90
2018-03-24T03:44:25.766Z,99.90
2018-03-24T03:46:52.466Z,99.90
2018-03-24T03:49:19.361Z,99.90
2018-03-24T03:51:46.082Z,99.90
2018-03-24T03:54:12.885Z,99.90
2018-03-24T03:56:39.559Z,99.90
2018-03-24T03:59:06.274Z,99.90
2018-03-24T04:01:33.028Z,99.90
2018-03-24T04:03:59.663Z,99.90
2018-03-24T04:06:26.395Z,99.90
2018-03-24T04:08:53.061Z,99.90
2018-03-24T04:11:19.816Z,99.90
2018-03-24T04:13:46.476Z,99.90
2018-03-24T04:16:13.879Z,99.90
2018-03-24T04:18:40.558Z,99.90
2018-03-24T04:21:07.281Z,99.90
2018-03-24T04:23:34.516Z,99.90
2018-03-24T04:26:01.955Z,99.90
2018-03-24T04:28:28.603Z,99.90
2018-03-24T04:30:55.323Z,99.90
2018-03-24T04:33:22.022Z,99.90
2018-03-24T04:35:49.433Z,99.90
2018-03-24T04:38:16.179Z,99.90
2018-03-24T04:40:42.876Z,99.90
2018-03-24T04:43:09.550Z,99.90
2018-03-24T04:45:36.307Z,99.90
2018-03-24T04:48:03.090Z,99.90
2018-03-24T04:50:29.725Z,99.90
2018-03-24T04:52:56.431Z,99.90
2018-03-24T04:55:23.116Z,99.90
2018-03-24T04:57:50.818Z,99.90
2018-03-24T05:00:17.524Z,99.90
2018-03-24T05:02:44.274Z,99.90
2018-03-24T05:05:10.984Z,99.90
2018-03-24T05:07:37.676Z,99.90
2018-03-24T05:10:04.313Z,99.90
2018-03-24T05:12:32.561Z,99.90
2018-03-24T05:14:59.272Z,99.90
2018-03-24T05:17:25.903Z,99.90
2018-03-24T05:19:52.554Z,99.90
2018-03-24T05:22:20.254Z,99.90
2018-03-24T05:24:46.944Z,99.90
2018-03-24T05:27:13.644Z,99.90
2018-03-24T05:29:40.345Z,99.90
2018-03-24T05:32:07.074Z,99.90
2018-03-24T05:34:33.756Z,99.90
2018-03-24T05:37:00.539Z,99.90
2018-03-24T05:39:27.234Z,99.90
2018-03-24T05:41:54.704Z,99.90
2018-03-24T05:44:22.134Z,99.90
2018-03-24T05:46:48.833Z,99.90
2018-03-24T05:49:15.556Z,99.90
2018-03-24T05:51:42.219Z,99.90
2018-03-24T05:54:08.959Z,99.90
2018-03-24T05:56:35.691Z,99.90
2018-03-24T05:59:02.465Z,99.90
2018-03-24T06:01:29.172Z,99.90
2018-03-24T06:03:55.904Z,99.90
2018-03-24T06:06:22.646Z,99.90
2018-03-24T06:08:49.278Z,99.90
2018-03-24T06:11:15.981Z,99.90
2018-03-24T06:13:42.677Z,99.90
2018-03-24T06:16:10.361Z,99.90
2018-03-24T06:18:37.814Z,99.90
2018-03-24T06:21:04.470Z,99.90
2018-03-24T06:23:31.210Z,99.90
2018-03-24T06:25:57.939Z,99.90
2018-03-24T06:28:24.702Z,99.90
2018-03-24T06:30:57.959Z,99.90
2018-03-24T06:33:24.703Z,99.90
2018-03-24T06:35:51.381Z,99.90
2018-03-24T06:38:18.027Z,99.90
2018-03-24T06:40:44.642Z,99.90
2018-03-24T06:43:11.508Z,99.90
2018-03-24T06:45:38.152Z,99.90
2018-03-24T06:48:04.769Z,99.90
2018-03-24T06:50:32.148Z,99.90
2018-03-24T06:52:59.536Z,99.90
2018-03-24T06:55:26.207Z,99.90
2018-03-24T06:57:52.970Z,99.90
2018-03-24T07:00:19.663Z,99.90
2018-03-24T07:02:46.318Z,99.90
2018-03-24T07:05:12.984Z,99.90
2018-03-24T07:07:39.680Z,99.90
2018-03-24T07:10:06.393Z,99.90
2018-03-24T07:12:33.048Z,99.90
2018-03-24T07:14:59.816Z,99.90
2018-03-24T07:17:26.550Z,99.90
2018-03-24T07:19:53.895Z,99.90
2018-03-24T07:22:20.586Z,99.90
2018-03-24T07:24:47.859Z,99.90
2018-03-24T07:27:14.518Z,99.90
2018-03-24T07:29:41.239Z,99.90
2018-03-24T07:32:07.846Z,99.90
2018-03-24T07:34:34.493Z,99.90
2018-03-24T07:37:02.157Z,99.90
2018-03-24T07:39:28.923Z,99.90
2018-03-24T07:41:55.614Z,99.90
2018-03-24T07:44:22.412Z,99.90
2018-03-24T07:46:49.197Z,99.90
2018-03-24T07:49:16.716Z,99.90
2018-03-24T07:51:43.468Z,99.90
2018-03-24T07:54:10.256Z,99.90
2018-03-24T07:56:36.970Z,99.90
2018-03-24T07:59:03.790Z,99.90
2018-03-24T08:01:30.580Z,99.90
2018-03-24T08:03:57.285Z,99.90
2018-03-24T08:06:24.113Z,99.90
2018-03-24T08:08:50.818Z,99.90
2018-03-24T08:11:17.678Z,99.90
2018-03-24T08:13:44.480Z,99.90
2018-03-24T08:16:11.244Z,99.90
2018-03-24T08:18:38.093Z,99.90
2018-03-24T08:21:05.806Z,99.90
2018-03-24T08:23:33.037Z,99.90
2018-03-24T08:25:59.817Z,99.90
2018-03-24T08:28:26.680Z,99.90
2018-03-24T08:30:53.540Z,99.90
2018-03-24T08:33:20.330Z,99.90
2018-03-24T08:35:47.165Z,99.90
2018-03-24T08:38:14.683Z,99.90
2018-03-24T08:40:41.525Z,99.90
2018-03-24T08:43:08.376Z,99.90
2018-03-24T08:45:35.173Z,99.90
2018-03-24T08:48:02.884Z,99.90
2018-03-24T08:50:29.752Z,99.90
2018-03-24T08:52:56.560Z,99.90
2018-03-24T08:55:23.384Z,99.90
2018-03-24T08:57:50.265Z,99.90
2018-03-24T09:00:17.163Z,99.90
2018-03-24T09:02:44.705Z,99.90
2018-03-24T09:05:13.343Z,99.90
2018-03-24T09:07:40.163Z,99.90
2018-03-24T09:10:06.997Z,99.90
2018-03-24T09:12:34.597Z,99.90
2018-03-24T09:15:01.421Z,99.90
2018-03-24T09:17:28.213Z,99.90
2018-03-24T09:19:54.998Z,99.90
2018-03-24T09:22:21.841Z,99.90
2018-03-24T09:24:49.675Z,99.90
2018-03-24T09:27:16.508Z,99.90
2018-03-24T09:29:43.306Z,99.90
2018-03-24T09:32:10.059Z,99.90
2018-03-24T09:34:37.661Z,99.90
2018-03-24T09:37:05.455Z,99.90
2018-03-24T09:39:32.526Z,99.90
2018-03-24T09:41:59.534Z,99.90
2018-03-24T09:44:27.204Z,99.90
2018-03-24T09:46:54.171Z,99.90
2018-03-24T09:49:21.119Z,99.90
2018-03-24T09:51:50.361Z,99.90
2018-03-24T09:54:17.462Z,99.90
2018-03-24T09:56:44.298Z,99.90
2018-03-24T09:59:12.218Z,99.90
2018-03-24T10:01:39.068Z,99.90
2018-03-24T10:04:06.081Z,99.90
2018-03-24T10:06:34.018Z,99.90
2018-03-24T10:09:01.107Z,99.90
2018-03-24T10:11:27.966Z,99.90
2018-03-24T10:13:54.742Z,99.90
2018-03-24T10:16:21.480Z,99.90
2018-03-24T10:18:48.339Z,99.90
2018-03-24T10:24:26.429Z,99.90
2018-03-24T10:26:53.349Z,99.90
2018-03-24T10:29:20.205Z,99.90
2018-03-24T10:31:47.963Z,99.90
2018-03-24T10:34:14.889Z,99.70
2018-03-24T10:36:41.788Z,99.90
2018-03-24T10:39:09.341Z,99.10
2018-03-24T10:41:36.214Z,99.00
2018-03-24T10:44:03.073Z,96.80
2018-03-24T10:46:29.867Z,98.10
2018-03-24T10:48:56.904Z,98.80
2018-03-24T10:51:23.917Z,99.00
2018-03-24T10:53:51.683Z,98.00
2018-03-24T10:56:19.734Z,97.10
2018-03-24T10:58:46.625Z,97.60
2018-03-24T11:01:14.117Z,97.10
2018-03-24T11:03:41.558Z,97.40
2018-03-24T11:06:08.385Z,97.70
2018-03-24T11:08:36.194Z,97.00
2018-03-24T11:11:04.283Z,97.00
2018-03-24T11:13:31.944Z,96.20
2018-03-24T11:15:58.813Z,95.90
2018-03-24T11:18:26.700Z,96.30
2018-03-24T11:20:54.157Z,96.20
2018-03-24T11:23:36.574Z,95.60
2018-03-24T11:26:03.523Z,95.80
2018-03-24T11:28:30.310Z,92.90
2018-03-24T11:30:57.299Z,95.90
2018-03-24T11:33:25.152Z,93.50
2018-03-24T11:35:52.350Z,94.60
2018-03-24T11:38:19.347Z,93.90
2018-03-24T11:40:46.687Z,93.80
2018-03-24T11:43:14.136Z,93.50
2018-03-24T11:45:41.138Z,93.80
2018-03-24T11:48:07.949Z,92.60
2018-03-24T11:50:34.819Z,92.30
2018-03-24T11:53:02.311Z,93.10
2018-03-24T11:55:29.380Z,94.20
2018-03-24T11:57:56.205Z,94.60
2018-03-24T12:00:24.313Z,94.20
2018-03-24T12:02:51.257Z,91.70
2018-03-24T12:05:20.323Z,94.00
2018-03-24T12:07:47.208Z,91.80
2018-03-24T12:10:14.590Z,92.80
2018-03-24T12:12:41.407Z,94.50
2018-03-24T12:15:10.513Z,93.80
2018-03-24T12:17:37.652Z,92.90
2018-03-24T12:20:04.550Z,92.80
2018-03-24T12:22:32.399Z,92.90
2018-03-24T12:24:59.201Z,92.10
2018-03-24T12:27:26.857Z,92.40
2018-03-24T12:29:55.059Z,92.40
2018-03-24T12:32:23.368Z,93.00
2018-03-24T12:34:51.393Z,92.80
2018-03-24T12:37:19.035Z,92.80
2018-03-24T12:39:46.116Z,92.40
2018-03-24T12:42:13.103Z,92.30
2018-03-24T12:44:39.988Z,92.80
2018-03-24T12:47:07.000Z,92.70
2018-03-24T12:49:34.074Z,92.90
2018-03-24T12:52:01.564Z,93.30
2018-03-24T12:54:28.532Z,93.10
2018-03-24T12:56:56.680Z,91.30
2018-03-24T12:59:25.146Z,91.70
2018-03-24T13:01:53.351Z,92.20
2018-03-24T13:04:24.415Z,91.80
2018-03-24T13:06:53.268Z,91.80
2018-03-24T13:09:21.239Z,94.50
2018-03-24T13:11:48.650Z,91.80
2018-03-24T13:14:18.559Z,92.00
2018-03-24T13:16:47.098Z,92.00
2018-03-24T13:19:14.206Z,91.10
2018-03-24T13:21:41.764Z,91.20
2018-03-24T13:24:08.575Z,91.20
2018-03-24T13:26:35.621Z,91.60
2018-03-24T13:29:02.583Z,89.00
2018-03-24T13:31:29.899Z,90.20
2018-03-24T13:33:59.101Z,89.00
2018-03-24T13:36:25.946Z,91.10
2018-03-24T13:38:53.929Z,90.60
2018-03-24T13:41:22.107Z,90.60
2018-03-24T13:43:49.015Z,90.60
2018-03-24T13:46:16.180Z,91.90
2018-03-24T13:48:46.769Z,93.10
2018-03-24T13:51:13.644Z,93.10
2018-03-24T13:53:46.705Z,90.90
2018-03-24T13:56:13.703Z,90.10
2018-03-24T13:58:40.770Z,89.30
2018-03-24T14:01:23.772Z,89.80
2018-03-24T14:03:53.167Z,89.30
2018-03-24T14:06:21.840Z,90.20
2018-03-24T14:08:53.735Z,90.10
2018-03-24T14:41:56.925Z,90.80
2018-03-24T15:53:14.484Z,88.40
2018-03-24T19:25:40.431Z,99.90
2018-03-24T21:26:02.811Z,99.90
2018-03-24T21:28:45.411Z,99.90
2018-03-24T21:31:14.083Z,99.90
2018-03-24T21:33:42.723Z,99.90
2018-03-24T21:36:11.161Z,99.90
2018-03-24T21:38:41.659Z,99.90
2018-03-24T21:43:54.349Z,99.90
2018-03-24T21:46:23.816Z,99.90
2018-03-24T21:48:53.142Z,99.90
2018-03-24T21:51:22.759Z,99.90
2018-03-24T21:53:51.369Z,99.90
2018-03-24T21:56:25.020Z,99.90
2018-03-24T21:58:53.663Z,99.90
2018-03-24T22:01:22.245Z,99.90
2018-03-24T22:03:51.385Z,99.90
2018-03-24T22:06:22.732Z,99.90
2018-03-24T22:08:51.256Z,99.90
2018-03-24T22:11:20.655Z,99.90
2018-03-24T22:13:52.235Z,99.90
2018-03-24T22:16:21.418Z,99.90
2018-03-24T22:18:50.813Z,99.90
2018-03-24T22:21:20.997Z,99.90
2018-03-24T22:23:50.349Z,99.90
2018-03-24T22:26:19.422Z,99.90
2018-03-24T22:28:49.657Z,99.90
2018-03-24T22:31:20.294Z,99.90
